Anatife — FGE8389 — position and weather

sailwx.info

Track history (hours):
 
Tides and Currents Weather Stations Pressure Air Temp Water Temp Dewpoint Dewpoint Depression Visibility Wind Speed Wind Dir Waves Ship Positions

Anatife

Last reported at 2015-Apr-16 12:31 UTC. Time now 2015-Apr-19 04:39 UTC.
Position N 47°21' W 003°09'.

Length 41 m; draft 2.4 m.

Type: Tanker. MMSI: 227681520.

Date/timePositionNaut miles runAvg speedWind from/ knotsBaromVisibWave heightAir tempDewpointWater temp
2015-Apr-16 12:31N 47°21' W 003°09'0 0.0
2015-Apr-15 14:19N 47°21' W 003°09'0 0.7
2015-Apr-15 13:33N 47°21' W 003°08'0 0.2
2015-Apr-15 12:33N 47°21' W 003°08'0 0.1
2015-Apr-15 11:32N 47°21' W 003°08'5 5.0
2015-Apr-15 10:33N 47°20' W 003°01'1110.4
2015-Apr-15 09:33N 47°16' W 002°47'1010.0
2015-Apr-15 08:33N 47°14' W 002°32'1010.2
2015-Apr-15 07:33N 47°12' W 002°17'1010.3
2015-Apr-15 06:33N 47°18' W 002°05'  
2015-Apr-10 08:12N 47°16' W 002°11'5 8.3
2015-Apr-10 07:33N 47°12' W 002°17'9 9.4
2015-Apr-10 06:33N 47°05' W 002°25'1010.3
2015-Apr-10 05:33N 46°55' W 002°28'1010.5
2015-Apr-10 04:33N 46°45' W 002°21'2 1.7
2015-Apr-10 03:33N 46°44' W 002°21'0 0.0
2015-Apr-10 02:33N 46°44' W 002°21'0 0.0
2015-Apr-10 01:33N 46°44' W 002°21'0 0.0
2015-Apr-10 00:33N 46°44' W 002°21'0 0.0
2015-Apr-09 23:30N 46°44' W 002°21'0 0.0
2015-Apr-09 22:33N 46°44' W 002°21'0 0.0
2015-Apr-09 21:33N 46°44' W 002°21'0 0.0
2015-Apr-09 20:32N 46°44' W 002°21'0 0.0
2015-Apr-09 19:21N 46°44' W 002°21'2 0.2
2015-Apr-09 08:31N 46°46' W 002°22'19 9.6
2015-Apr-09 06:30N 47°05' W 002°24'  
Track history (hours):
 
Tides and Currents Weather Stations Pressure Air Temp Water Temp Dewpoint Dewpoint Depression Visibility Wind Speed Wind Dir Waves Ship Positions

Anatife

Last reported at 2015-Apr-16 12:31 UTC. Time now 2015-Apr-19 04:39 UTC.
Position N 47°21' W 003°09'.

Length 41 m; draft 2.4 m.

Type: Tanker. MMSI: 227681520.

Date/timePositionNaut miles runAvg speedWind from/ knotsBaromVisibWave heightAir tempDewpointWater temp
2015-Apr-16 12:31N 47°21' W 003°09'0 0.0
2015-Apr-15 14:19N 47°21' W 003°09'0 0.7
2015-Apr-15 13:33N 47°21' W 003°08'0 0.2
2015-Apr-15 12:33N 47°21' W 003°08'0 0.1
2015-Apr-15 11:32N 47°21' W 003°08'5 5.0
2015-Apr-15 10:33N 47°20' W 003°01'1110.4
2015-Apr-15 09:33N 47°16' W 002°47'1010.0
2015-Apr-15 08:33N 47°14' W 002°32'1010.2
2015-Apr-15 07:33N 47°12' W 002°17'1010.3
2015-Apr-15 06:33N 47°18' W 002°05'  
2015-Apr-10 08:12N 47°16' W 002°11'5 8.3
2015-Apr-10 07:33N 47°12' W 002°17'9 9.4
2015-Apr-10 06:33N 47°05' W 002°25'1010.3
2015-Apr-10 05:33N 46°55' W 002°28'1010.5
2015-Apr-10 04:33N 46°45' W 002°21'2 1.7
2015-Apr-10 03:33N 46°44' W 002°21'0 0.0
2015-Apr-10 02:33N 46°44' W 002°21'0 0.0
2015-Apr-10 01:33N 46°44' W 002°21'0 0.0
2015-Apr-10 00:33N 46°44' W 002°21'0 0.0
2015-Apr-09 23:30N 46°44' W 002°21'0 0.0
2015-Apr-09 22:33N 46°44' W 002°21'0 0.0
2015-Apr-09 21:33N 46°44' W 002°21'0 0.0
2015-Apr-09 20:32N 46°44' W 002°21'0 0.0
2015-Apr-09 19:21N 46°44' W 002°21'2 0.2
2015-Apr-09 08:31N 46°46' W 002°22'19 9.6
2015-Apr-09 06:30N 47°05' W 002°24'  

Dump ship's entire track history